sensor_id;sensor_type;location;lat;lon;timestamp;P1;durP1;ratioP1;P2;durP2;ratioP2
9080;SDS011;13509;50.760;6.080;2023-12-29T00:00:05;11.17;;;1.83;;
9080;SDS011;13509;50.760;6.080;2023-12-29T00:02:34;3.23;;;1.70;;
9080;SDS011;13509;50.760;6.080;2023-12-29T00:05:03;3.97;;;1.90;;
9080;SDS011;13509;50.760;6.080;2023-12-29T00:07:32;4.00;;;1.90;;
9080;SDS011;13509;50.760;6.080;2023-12-29T00:10:02;5.67;;;1.70;;
9080;SDS011;13509;50.760;6.080;2023-12-29T00:12:30;4.87;;;1.77;;
9080;SDS011;13509;50.760;6.080;2023-12-29T00:14:59;6.70;;;1.90;;
9080;SDS011;13509;50.760;6.080;2023-12-29T00:17:27;5.77;;;2.73;;
9080;SDS011;13509;50.760;6.080;2023-12-29T00:19:56;7.23;;;2.03;;
9080;SDS011;13509;50.760;6.080;2023-12-29T00:22:24;4.00;;;1.80;;
9080;SDS011;13509;50.760;6.080;2023-12-29T00:24:53;6.03;;;2.10;;
9080;SDS011;13509;50.760;6.080;2023-12-29T00:27:23;5.43;;;1.67;;
9080;SDS011;13509;50.760;6.080;2023-12-29T00:29:51;4.50;;;2.17;;
9080;SDS011;13509;50.760;6.080;2023-12-29T00:32:20;9.83;;;2.37;;
9080;SDS011;13509;50.760;6.080;2023-12-29T00:34:48;6.53;;;1.90;;
9080;SDS011;13509;50.760;6.080;2023-12-29T00:37:17;8.27;;;1.90;;
9080;SDS011;13509;50.760;6.080;2023-12-29T00:39:45;7.77;;;2.00;;
9080;SDS011;13509;50.760;6.080;2023-12-29T00:42:13;7.80;;;2.40;;
9080;SDS011;13509;50.760;6.080;2023-12-29T00:44:43;4.10;;;1.57;;
9080;SDS011;13509;50.760;6.080;2023-12-29T00:47:12;6.07;;;2.10;;
9080;SDS011;13509;50.760;6.080;2023-12-29T00:49:40;10.47;;;2.40;;
9080;SDS011;13509;50.760;6.080;2023-12-29T00:52:09;11.87;;;2.10;;
9080;SDS011;13509;50.760;6.080;2023-12-29T00:54:37;9.63;;;1.90;;
9080;SDS011;13509;50.760;6.080;2023-12-29T00:57:06;6.40;;;2.07;;
9080;SDS011;13509;50.760;6.080;2023-12-29T00:59:36;8.57;;;1.90;;
9080;SDS011;13509;50.760;6.080;2023-12-29T01:02:06;8.97;;;2.00;;
9080;SDS011;13509;50.760;6.080;2023-12-29T01:04:36;14.37;;;3.50;;
9080;SDS011;13509;50.760;6.080;2023-12-29T01:07:06;10.03;;;2.70;;
9080;SDS011;13509;50.760;6.080;2023-12-29T01:09:36;5.10;;;2.33;;
9080;SDS011;13509;50.760;6.080;2023-12-29T01:12:06;7.07;;;2.07;;
9080;SDS011;13509;50.760;6.080;2023-12-29T01:14:34;7.30;;;2.23;;
9080;SDS011;13509;50.760;6.080;2023-12-29T01:17:03;6.53;;;1.80;;
9080;SDS011;13509;50.760;6.080;2023-12-29T01:19:34;10.87;;;2.40;;
9080;SDS011;13509;50.760;6.080;2023-12-29T01:22:02;6.57;;;1.80;;
9080;SDS011;13509;50.760;6.080;2023-12-29T01:24:31;6.17;;;2.10;;
9080;SDS011;13509;50.760;6.080;2023-12-29T01:27:11;6.40;;;2.13;;
9080;SDS011;13509;50.760;6.080;2023-12-29T01:29:39;7.73;;;1.97;;
9080;SDS011;13509;50.760;6.080;2023-12-29T01:32:07;6.50;;;1.87;;
9080;SDS011;13509;50.760;6.080;2023-12-29T01:34:38;8.90;;;2.50;;
9080;SDS011;13509;50.760;6.080;2023-12-29T01:37:07;4.30;;;1.90;;
9080;SDS011;13509;50.760;6.080;2023-12-29T01:39:35;6.63;;;1.90;;
9080;SDS011;13509;50.760;6.080;2023-12-29T01:42:03;4.90;;;2.10;;
9080;SDS011;13509;50.760;6.080;2023-12-29T01:44:32;3.93;;;1.47;;
9080;SDS011;13509;50.760;6.080;2023-12-29T01:47:00;5.43;;;2.13;;
9080;SDS011;13509;50.760;6.080;2023-12-29T01:49:29;3.37;;;1.60;;
9080;SDS011;13509;50.760;6.080;2023-12-29T01:52:00;8.37;;;2.20;;
9080;SDS011;13509;50.760;6.080;2023-12-29T01:54:29;8.43;;;2.43;;
9080;SDS011;13509;50.760;6.080;2023-12-29T01:56:59;3.27;;;1.73;;
9080;SDS011;13509;50.760;6.080;2023-12-29T01:59:28;12.03;;;1.90;;
9080;SDS011;13509;50.760;6.080;2023-12-29T02:01:57;5.90;;;1.80;;
9080;SDS011;13509;50.760;6.080;2023-12-29T02:04:26;6.90;;;1.90;;
9080;SDS011;13509;50.760;6.080;2023-12-29T02:06:55;7.77;;;1.80;;
9080;SDS011;13509;50.760;6.080;2023-12-29T02:09:26;7.60;;;2.20;;
9080;SDS011;13509;50.760;6.080;2023-12-29T02:11:55;8.47;;;2.07;;
9080;SDS011;13509;50.760;6.080;2023-12-29T02:14:26;11.80;;;2.33;;
9080;SDS011;13509;50.760;6.080;2023-12-29T02:16:57;5.80;;;1.70;;
9080;SDS011;13509;50.760;6.080;2023-12-29T02:19:36;4.33;;;1.60;;
9080;SDS011;13509;50.760;6.080;2023-12-29T02:22:06;7.03;;;1.80;;
9080;SDS011;13509;50.760;6.080;2023-12-29T02:24:37;5.13;;;1.87;;
9080;SDS011;13509;50.760;6.080;2023-12-29T02:27:10;7.67;;;2.03;;
9080;SDS011;13509;50.760;6.080;2023-12-29T02:29:43;3.93;;;1.53;;
9080;SDS011;13509;50.760;6.080;2023-12-29T02:32:16;8.00;;;2.27;;
9080;SDS011;13509;50.760;6.080;2023-12-29T02:34:47;12.70;;;2.20;;
9080;SDS011;13509;50.760;6.080;2023-12-29T02:37:16;4.40;;;1.77;;
9080;SDS011;13509;50.760;6.080;2023-12-29T02:39:44;5.80;;;1.83;;
9080;SDS011;13509;50.760;6.080;2023-12-29T02:42:14;6.60;;;1.90;;
9080;SDS011;13509;50.760;6.080;2023-12-29T02:44:42;4.83;;;1.70;;
9080;SDS011;13509;50.760;6.080;2023-12-29T02:47:11;8.73;;;2.00;;
9080;SDS011;13509;50.760;6.080;2023-12-29T02:49:39;7.23;;;1.93;;
9080;SDS011;13509;50.760;6.080;2023-12-29T02:52:08;11.23;;;1.60;;
9080;SDS011;13509;50.760;6.080;2023-12-29T02:54:51;9.07;;;2.10;;
9080;SDS011;13509;50.760;6.080;2023-12-29T02:57:43;7.13;;;1.70;;
9080;SDS011;13509;50.760;6.080;2023-12-29T03:00:12;7.63;;;2.17;;
9080;SDS011;13509;50.760;6.080;2023-12-29T03:02:40;7.97;;;1.60;;
9080;SDS011;13509;50.760;6.080;2023-12-29T03:05:10;7.07;;;1.70;;
9080;SDS011;13509;50.760;6.080;2023-12-29T03:07:38;7.27;;;2.07;;
9080;SDS011;13509;50.760;6.080;2023-12-29T03:10:07;6.07;;;1.80;;
9080;SDS011;13509;50.760;6.080;2023-12-29T03:12:36;4.57;;;1.83;;
9080;SDS011;13509;50.760;6.080;2023-12-29T03:15:18;5.27;;;1.83;;
9080;SDS011;13509;50.760;6.080;2023-12-29T03:18:04;4.33;;;1.47;;
9080;SDS011;13509;50.760;6.080;2023-12-29T03:20:33;6.10;;;1.53;;
9080;SDS011;13509;50.760;6.080;2023-12-29T03:23:01;9.73;;;2.20;;
9080;SDS011;13509;50.760;6.080;2023-12-29T03:25:29;6.63;;;1.90;;
9080;SDS011;13509;50.760;6.080;2023-12-29T03:27:58;3.43;;;1.87;;
9080;SDS011;13509;50.760;6.080;2023-12-29T03:30:28;8.13;;;2.10;;
9080;SDS011;13509;50.760;6.080;2023-12-29T03:32:57;7.93;;;1.60;;
9080;SDS011;13509;50.760;6.080;2023-12-29T03:35:27;8.87;;;1.57;;
9080;SDS011;13509;50.760;6.080;2023-12-29T03:37:56;4.47;;;1.50;;
9080;SDS011;13509;50.760;6.080;2023-12-29T03:40:24;6.93;;;1.77;;
9080;SDS011;13509;50.760;6.080;2023-12-29T03:42:53;4.50;;;1.77;;
9080;SDS011;13509;50.760;6.080;2023-12-29T03:45:21;8.03;;;1.80;;
9080;SDS011;13509;50.760;6.080;2023-12-29T03:47:51;9.47;;;1.77;;
9080;SDS011;13509;50.760;6.080;2023-12-29T03:50:19;6.17;;;1.73;;
9080;SDS011;13509;50.760;6.080;2023-12-29T03:52:47;10.63;;;1.97;;
9080;SDS011;13509;50.760;6.080;2023-12-29T03:55:16;7.70;;;1.90;;
9080;SDS011;13509;50.760;6.080;2023-12-29T03:57:44;6.43;;;1.87;;
9080;SDS011;13509;50.760;6.080;2023-12-29T04:00:13;9.90;;;1.90;;
9080;SDS011;13509;50.760;6.080;2023-12-29T04:02:42;6.07;;;1.80;;
9080;SDS011;13509;50.760;6.080;2023-12-29T04:05:11;11.43;;;1.87;;
9080;SDS011;13509;50.760;6.080;2023-12-29T04:07:40;5.63;;;2.00;;
9080;SDS011;13509;50.760;6.080;2023-12-29T04:10:08;8.07;;;1.70;;
9080;SDS011;13509;50.760;6.080;2023-12-29T04:12:37;6.47;;;2.47;;
9080;SDS011;13509;50.760;6.080;2023-12-29T04:15:05;5.47;;;1.80;;
9080;SDS011;13509;50.760;6.080;2023-12-29T04:17:34;10.83;;;1.97;;
9080;SDS011;13509;50.760;6.080;2023-12-29T04:20:03;10.63;;;2.90;;
9080;SDS011;13509;50.760;6.080;2023-12-29T04:22:33;8.00;;;1.70;;
9080;SDS011;13509;50.760;6.080;2023-12-29T04:25:01;8.33;;;1.63;;
9080;SDS011;13509;50.760;6.080;2023-12-29T04:27:29;6.70;;;1.60;;
9080;SDS011;13509;50.760;6.080;2023-12-29T04:30:02;11.13;;;1.87;;
9080;SDS011;13509;50.760;6.080;2023-12-29T04:32:36;7.83;;;1.90;;
9080;SDS011;13509;50.760;6.080;2023-12-29T04:35:07;8.40;;;2.10;;
9080;SDS011;13509;50.760;6.080;2023-12-29T04:37:39;6.67;;;1.80;;
9080;SDS011;13509;50.760;6.080;2023-12-29T04:40:08;7.60;;;1.63;;
9080;SDS011;13509;50.760;6.080;2023-12-29T04:42:36;3.87;;;1.43;;
9080;SDS011;13509;50.760;6.080;2023-12-29T04:45:05;8.43;;;1.73;;
9080;SDS011;13509;50.760;6.080;2023-12-29T04:47:33;7.40;;;1.93;;
9080;SDS011;13509;50.760;6.080;2023-12-29T04:50:02;6.77;;;1.60;;
9080;SDS011;13509;50.760;6.080;2023-12-29T04:52:32;7.73;;;1.80;;
9080;SDS011;13509;50.760;6.080;2023-12-29T04:55:01;4.93;;;2.13;;
9080;SDS011;13509;50.760;6.080;2023-12-29T04:57:30;7.07;;;1.73;;
9080;SDS011;13509;50.760;6.080;2023-12-29T04:59:58;6.77;;;1.87;;
9080;SDS011;13509;50.760;6.080;2023-12-29T05:02:27;6.70;;;1.70;;
9080;SDS011;13509;50.760;6.080;2023-12-29T05:04:55;11.00;;;1.63;;
9080;SDS011;13509;50.760;6.080;2023-12-29T05:07:24;9.67;;;1.83;;
9080;SDS011;13509;50.760;6.080;2023-12-29T05:09:53;5.97;;;1.60;;
9080;SDS011;13509;50.760;6.080;2023-12-29T05:12:22;4.67;;;1.57;;
9080;SDS011;13509;50.760;6.080;2023-12-29T05:14:51;8.87;;;2.10;;
9080;SDS011;13509;50.760;6.080;2023-12-29T05:17:19;7.20;;;1.70;;
9080;SDS011;13509;50.760;6.080;2023-12-29T05:19:47;6.50;;;1.50;;
9080;SDS011;13509;50.760;6.080;2023-12-29T05:22:16;6.97;;;1.63;;
9080;SDS011;13509;50.760;6.080;2023-12-29T05:24:44;8.57;;;1.80;;
9080;SDS011;13509;50.760;6.080;2023-12-29T05:27:13;7.77;;;1.40;;
9080;SDS011;13509;50.760;6.080;2023-12-29T05:29:42;7.83;;;1.67;;
9080;SDS011;13509;50.760;6.080;2023-12-29T05:32:11;5.40;;;1.40;;
9080;SDS011;13509;50.760;6.080;2023-12-29T05:34:39;7.33;;;1.93;;
9080;SDS011;13509;50.760;6.080;2023-12-29T05:37:08;5.83;;;1.67;;
9080;SDS011;13509;50.760;6.080;2023-12-29T05:39:36;5.73;;;1.90;;
9080;SDS011;13509;50.760;6.080;2023-12-29T05:42:05;5.53;;;1.33;;
9080;SDS011;13509;50.760;6.080;2023-12-29T05:44:35;7.87;;;2.23;;
9080;SDS011;13509;50.760;6.080;2023-12-29T05:47:05;5.27;;;1.63;;
9080;SDS011;13509;50.760;6.080;2023-12-29T05:49:33;6.50;;;1.83;;
9080;SDS011;13509;50.760;6.080;2023-12-29T05:52:05;3.83;;;1.60;;
9080;SDS011;13509;50.760;6.080;2023-12-29T05:54:34;5.33;;;1.40;;
9080;SDS011;13509;50.760;6.080;2023-12-29T05:57:03;5.67;;;1.60;;
9080;SDS011;13509;50.760;6.080;2023-12-29T05:59:31;5.93;;;1.43;;
9080;SDS011;13509;50.760;6.080;2023-12-29T06:01:59;4.87;;;1.70;;
9080;SDS011;13509;50.760;6.080;2023-12-29T06:04:30;6.70;;;1.73;;
9080;SDS011;13509;50.760;6.080;2023-12-29T06:06:58;10.83;;;1.60;;
9080;SDS011;13509;50.760;6.080;2023-12-29T06:09:27;7.73;;;1.43;;
9080;SDS011;13509;50.760;6.080;2023-12-29T06:11:55;4.63;;;1.50;;
9080;SDS011;13509;50.760;6.080;2023-12-29T06:14:24;7.50;;;1.70;;
9080;SDS011;13509;50.760;6.080;2023-12-29T06:16:52;6.47;;;1.60;;
9080;SDS011;13509;50.760;6.080;2023-12-29T06:19:20;4.63;;;1.40;;
9080;SDS011;13509;50.760;6.080;2023-12-29T06:21:50;4.67;;;1.40;;
9080;SDS011;13509;50.760;6.080;2023-12-29T06:24:19;5.50;;;1.47;;
9080;SDS011;13509;50.760;6.080;2023-12-29T06:26:47;5.43;;;2.20;;
9080;SDS011;13509;50.760;6.080;2023-12-29T06:29:15;5.87;;;1.77;;
9080;SDS011;13509;50.760;6.080;2023-12-29T06:31:44;7.30;;;1.23;;
9080;SDS011;13509;50.760;6.080;2023-12-29T06:34:12;5.37;;;1.40;;
9080;SDS011;13509;50.760;6.080;2023-12-29T06:36:40;4.17;;;1.53;;
9080;SDS011;13509;50.760;6.080;2023-12-29T06:39:10;5.13;;;1.37;;
9080;SDS011;13509;50.760;6.080;2023-12-29T06:41:39;8.47;;;1.60;;
9080;SDS011;13509;50.760;6.080;2023-12-29T06:44:07;7.57;;;1.50;;
9080;SDS011;13509;50.760;6.080;2023-12-29T06:46:36;8.13;;;1.43;;
9080;SDS011;13509;50.760;6.080;2023-12-29T06:49:05;2.90;;;1.40;;
9080;SDS011;13509;50.760;6.080;2023-12-29T06:51:34;4.70;;;1.50;;
9080;SDS011;13509;50.760;6.080;2023-12-29T06:54:05;7.50;;;1.43;;
9080;SDS011;13509;50.760;6.080;2023-12-29T06:56:35;4.77;;;1.40;;
9080;SDS011;13509;50.760;6.080;2023-12-29T06:59:03;4.37;;;1.60;;
9080;SDS011;13509;50.760;6.080;2023-12-29T07:01:31;3.33;;;1.33;;
9080;SDS011;13509;50.760;6.080;2023-12-29T07:04:20;6.67;;;1.40;;
9080;SDS011;13509;50.760;6.080;2023-12-29T07:07:18;5.27;;;1.43;;
9080;SDS011;13509;50.760;6.080;2023-12-29T07:10:19;6.73;;;1.33;;
9080;SDS011;13509;50.760;6.080;2023-12-29T07:12:49;7.73;;;1.60;;
9080;SDS011;13509;50.760;6.080;2023-12-29T07:15:18;4.83;;;1.47;;
9080;SDS011;13509;50.760;6.080;2023-12-29T07:17:46;7.97;;;1.40;;
9080;SDS011;13509;50.760;6.080;2023-12-29T07:20:15;5.73;;;1.67;;
9080;SDS011;13509;50.760;6.080;2023-12-29T07:22:43;5.07;;;1.50;;
9080;SDS011;13509;50.760;6.080;2023-12-29T07:25:12;6.93;;;1.70;;
9080;SDS011;13509;50.760;6.080;2023-12-29T07:27:45;10.07;;;3.23;;
9080;SDS011;13509;50.760;6.080;2023-12-29T07:30:24;9.97;;;1.93;;
9080;SDS011;13509;50.760;6.080;2023-12-29T07:32:52;8.97;;;2.37;;
9080;SDS011;13509;50.760;6.080;2023-12-29T07:35:21;8.10;;;1.90;;
9080;SDS011;13509;50.760;6.080;2023-12-29T07:37:49;8.53;;;1.70;;
9080;SDS011;13509;50.760;6.080;2023-12-29T07:40:19;5.50;;;1.87;;
9080;SDS011;13509;50.760;6.080;2023-12-29T07:42:50;5.73;;;1.67;;
9080;SDS011;13509;50.760;6.080;2023-12-29T07:45:19;9.37;;;1.90;;
9080;SDS011;13509;50.760;6.080;2023-12-29T07:47:49;6.30;;;1.83;;
9080;SDS011;13509;50.760;6.080;2023-12-29T07:50:16;9.00;;;1.73;;
9080;SDS011;13509;50.760;6.080;2023-12-29T07:52:44;8.17;;;1.67;;
9080;SDS011;13509;50.760;6.080;2023-12-29T07:55:13;8.53;;;1.60;;
9080;SDS011;13509;50.760;6.080;2023-12-29T07:57:43;8.60;;;1.80;;
9080;SDS011;13509;50.760;6.080;2023-12-29T08:00:14;10.00;;;2.00;;
9080;SDS011;13509;50.760;6.080;2023-12-29T08:02:42;11.23;;;2.17;;
9080;SDS011;13509;50.760;6.080;2023-12-29T08:05:12;11.10;;;1.87;;
9080;SDS011;13509;50.760;6.080;2023-12-29T08:07:41;5.63;;;1.90;;
9080;SDS011;13509;50.760;6.080;2023-12-29T08:10:10;5.60;;;2.00;;
9080;SDS011;13509;50.760;6.080;2023-12-29T08:12:38;7.90;;;2.03;;
9080;SDS011;13509;50.760;6.080;2023-12-29T08:15:07;9.40;;;2.07;;
9080;SDS011;13509;50.760;6.080;2023-12-29T08:17:35;5.83;;;1.80;;
9080;SDS011;13509;50.760;6.080;2023-12-29T08:20:05;6.97;;;1.80;;
9080;SDS011;13509;50.760;6.080;2023-12-29T08:22:35;5.43;;;1.70;;
9080;SDS011;13509;50.760;6.080;2023-12-29T08:25:04;8.80;;;1.80;;
9080;SDS011;13509;50.760;6.080;2023-12-29T08:27:32;11.27;;;2.17;;
9080;SDS011;13509;50.760;6.080;2023-12-29T08:30:01;9.97;;;2.40;;
9080;SDS011;13509;50.760;6.080;2023-12-29T08:32:30;5.10;;;1.80;;
9080;SDS011;13509;50.760;6.080;2023-12-29T08:34:59;4.90;;;1.50;;
9080;SDS011;13509;50.760;6.080;2023-12-29T08:37:28;6.53;;;1.60;;
9080;SDS011;13509;50.760;6.080;2023-12-29T08:39:57;8.10;;;1.97;;
9080;SDS011;13509;50.760;6.080;2023-12-29T08:42:28;7.60;;;1.67;;
9080;SDS011;13509;50.760;6.080;2023-12-29T08:44:58;7.73;;;1.43;;
9080;SDS011;13509;50.760;6.080;2023-12-29T08:47:26;5.17;;;1.57;;
9080;SDS011;13509;50.760;6.080;2023-12-29T08:49:54;4.70;;;1.50;;
9080;SDS011;13509;50.760;6.080;2023-12-29T08:52:23;7.07;;;2.13;;
9080;SDS011;13509;50.760;6.080;2023-12-29T08:54:51;7.13;;;1.70;;
9080;SDS011;13509;50.760;6.080;2023-12-29T08:57:21;6.20;;;2.00;;
9080;SDS011;13509;50.760;6.080;2023-12-29T08:59:49;7.03;;;1.80;;
9080;SDS011;13509;50.760;6.080;2023-12-29T09:02:17;7.07;;;1.90;;
9080;SDS011;13509;50.760;6.080;2023-12-29T09:04:46;3.63;;;1.07;;
9080;SDS011;13509;50.760;6.080;2023-12-29T09:07:14;5.80;;;1.60;;
9080;SDS011;13509;50.760;6.080;2023-12-29T09:09:42;5.43;;;1.70;;
9080;SDS011;13509;50.760;6.080;2023-12-29T09:12:11;8.10;;;1.97;;
9080;SDS011;13509;50.760;6.080;2023-12-29T09:14:40;4.70;;;1.37;;
9080;SDS011;13509;50.760;6.080;2023-12-29T09:17:09;6.23;;;1.50;;
9080;SDS011;13509;50.760;6.080;2023-12-29T09:19:37;3.90;;;1.00;;
9080;SDS011;13509;50.760;6.080;2023-12-29T09:22:06;5.00;;;1.37;;
9080;SDS011;13509;50.760;6.080;2023-12-29T09:24:34;7.53;;;1.57;;
9080;SDS011;13509;50.760;6.080;2023-12-29T09:27:03;5.37;;;1.40;;
9080;SDS011;13509;50.760;6.080;2023-12-29T09:29:32;3.90;;;1.70;;
9080;SDS011;13509;50.760;6.080;2023-12-29T09:32:01;2.80;;;1.27;;
9080;SDS011;13509;50.760;6.080;2023-12-29T09:34:30;3.83;;;1.10;;
9080;SDS011;13509;50.760;6.080;2023-12-29T09:36:58;9.47;;;1.63;;
9080;SDS011;13509;50.760;6.080;2023-12-29T09:39:27;3.60;;;1.57;;
9080;SDS011;13509;50.760;6.080;2023-12-29T09:41:57;5.97;;;1.57;;
9080;SDS011;13509;50.760;6.080;2023-12-29T09:44:27;3.93;;;1.40;;
9080;SDS011;13509;50.760;6.080;2023-12-29T09:46:56;5.40;;;2.07;;
9080;SDS011;13509;50.760;6.080;2023-12-29T09:49:27;6.07;;;1.23;;
9080;SDS011;13509;50.760;6.080;2023-12-29T09:51:55;8.23;;;1.50;;
9080;SDS011;13509;50.760;6.080;2023-12-29T09:54:25;6.60;;;1.37;;
9080;SDS011;13509;50.760;6.080;2023-12-29T09:56:53;3.77;;;1.27;;
9080;SDS011;13509;50.760;6.080;2023-12-29T09:59:22;5.03;;;1.40;;
9080;SDS011;13509;50.760;6.080;2023-12-29T10:01:51;5.97;;;1.77;;
9080;SDS011;13509;50.760;6.080;2023-12-29T10:04:21;4.83;;;1.50;;
9080;SDS011;13509;50.760;6.080;2023-12-29T10:06:50;2.13;;;1.10;;
9080;SDS011;13509;50.760;6.080;2023-12-29T10:09:20;2.43;;;1.77;;
9080;SDS011;13509;50.760;6.080;2023-12-29T10:11:48;5.73;;;1.50;;
9080;SDS011;13509;50.760;6.080;2023-12-29T10:14:20;6.07;;;1.30;;
9080;SDS011;13509;50.760;6.080;2023-12-29T10:16:52;4.43;;;1.47;;
9080;SDS011;13509;50.760;6.080;2023-12-29T10:19:23;4.30;;;1.10;;
9080;SDS011;13509;50.760;6.080;2023-12-29T10:21:56;5.70;;;1.33;;
9080;SDS011;13509;50.760;6.080;2023-12-29T10:24:29;6.03;;;1.17;;
9080;SDS011;13509;50.760;6.080;2023-12-29T10:26:57;4.77;;;1.30;;
9080;SDS011;13509;50.760;6.080;2023-12-29T10:29:26;5.30;;;1.30;;
9080;SDS011;13509;50.760;6.080;2023-12-29T10:31:55;4.43;;;1.40;;
9080;SDS011;13509;50.760;6.080;2023-12-29T10:34:24;5.23;;;1.50;;
9080;SDS011;13509;50.760;6.080;2023-12-29T10:36:57;5.87;;;1.30;;
9080;SDS011;13509;50.760;6.080;2023-12-29T10:39:27;3.97;;;1.17;;
9080;SDS011;13509;50.760;6.080;2023-12-29T10:42:02;3.87;;;1.00;;
9080;SDS011;13509;50.760;6.080;2023-12-29T10:44:32;2.40;;;1.23;;
9080;SDS011;13509;50.760;6.080;2023-12-29T10:47:07;6.17;;;1.53;;
9080;SDS011;13509;50.760;6.080;2023-12-29T10:49:36;4.90;;;1.20;;
9080;SDS011;13509;50.760;6.080;2023-12-29T10:52:12;4.53;;;1.10;;
9080;SDS011;13509;50.760;6.080;2023-12-29T10:54:41;3.97;;;1.10;;
9080;SDS011;13509;50.760;6.080;2023-12-29T10:57:10;4.20;;;1.53;;
9080;SDS011;13509;50.760;6.080;2023-12-29T10:59:38;3.83;;;1.17;;
9080;SDS011;13509;50.760;6.080;2023-12-29T11:02:07;5.00;;;1.60;;
9080;SDS011;13509;50.760;6.080;2023-12-29T11:04:41;2.60;;;1.13;;
9080;SDS011;13509;50.760;6.080;2023-12-29T11:07:12;5.00;;;1.40;;
9080;SDS011;13509;50.760;6.080;2023-12-29T11:09:41;1.90;;;1.30;;
9080;SDS011;13509;50.760;6.080;2023-12-29T11:12:09;6.20;;;1.60;;
9080;SDS011;13509;50.760;6.080;2023-12-29T11:14:39;2.83;;;1.00;;
9080;SDS011;13509;50.760;6.080;2023-12-29T11:17:12;6.63;;;1.20;;
9080;SDS011;13509;50.760;6.080;2023-12-29T11:19:42;3.37;;;1.03;;
9080;SDS011;13509;50.760;6.080;2023-12-29T11:22:12;4.37;;;1.37;;
9080;SDS011;13509;50.760;6.080;2023-12-29T11:24:42;1.70;;;1.03;;
9080;SDS011;13509;50.760;6.080;2023-12-29T11:27:10;3.10;;;0.93;;
9080;SDS011;13509;50.760;6.080;2023-12-29T11:29:39;1.53;;;0.87;;
9080;SDS011;13509;50.760;6.080;2023-12-29T11:32:11;2.67;;;0.87;;
9080;SDS011;13509;50.760;6.080;2023-12-29T11:34:41;2.93;;;0.93;;
9080;SDS011;13509;50.760;6.080;2023-12-29T11:37:18;3.37;;;1.00;;
9080;SDS011;13509;50.760;6.080;2023-12-29T11:39:50;0.63;;;0.60;;
9080;SDS011;13509;50.760;6.080;2023-12-29T11:42:21;2.13;;;0.80;;
9080;SDS011;13509;50.760;6.080;2023-12-29T11:44:50;2.93;;;1.10;;
9080;SDS011;13509;50.760;6.080;2023-12-29T11:47:34;1.80;;;0.70;;
9080;SDS011;13509;50.760;6.080;2023-12-29T11:50:03;1.97;;;0.90;;
9080;SDS011;13509;50.760;6.080;2023-12-29T11:52:36;2.20;;;0.90;;
9080;SDS011;13509;50.760;6.080;2023-12-29T11:55:08;2.97;;;1.00;;
9080;SDS011;13509;50.760;6.080;2023-12-29T11:57:37;1.13;;;0.67;;
9080;SDS011;13509;50.760;6.080;2023-12-29T12:00:07;1.73;;;0.93;;
9080;SDS011;13509;50.760;6.080;2023-12-29T12:02:35;2.57;;;1.10;;
9080;SDS011;13509;50.760;6.080;2023-12-29T12:05:04;2.10;;;1.00;;
9080;SDS011;13509;50.760;6.080;2023-12-29T12:10:34;4.50;;;0.90;;
9080;SDS011;13509;50.760;6.080;2023-12-29T12:13:05;1.07;;;0.77;;
9080;SDS011;13509;50.760;6.080;2023-12-29T12:15:35;2.87;;;0.67;;
9080;SDS011;13509;50.760;6.080;2023-12-29T12:18:04;1.90;;;1.03;;
9080;SDS011;13509;50.760;6.080;2023-12-29T12:20:36;1.67;;;0.90;;
9080;SDS011;13509;50.760;6.080;2023-12-29T12:23:08;3.43;;;1.03;;
9080;SDS011;13509;50.760;6.080;2023-12-29T12:25:40;3.77;;;1.13;;
9080;SDS011;13509;50.760;6.080;2023-12-29T12:28:09;1.73;;;0.83;;
9080;SDS011;13509;50.760;6.080;2023-12-29T12:30:37;3.23;;;1.10;;
9080;SDS011;13509;50.760;6.080;2023-12-29T12:33:06;2.73;;;1.10;;
9080;SDS011;13509;50.760;6.080;2023-12-29T12:35:38;3.67;;;1.30;;
9080;SDS011;13509;50.760;6.080;2023-12-29T12:38:06;4.30;;;1.30;;
9080;SDS011;13509;50.760;6.080;2023-12-29T12:40:35;3.17;;;0.90;;
9080;SDS011;13509;50.760;6.080;2023-12-29T12:43:05;2.23;;;0.90;;
9080;SDS011;13509;50.760;6.080;2023-12-29T12:45:34;1.90;;;1.00;;
9080;SDS011;13509;50.760;6.080;2023-12-29T12:48:03;1.93;;;1.00;;
9080;SDS011;13509;50.760;6.080;2023-12-29T12:50:37;3.00;;;1.27;;
9080;SDS011;13509;50.760;6.080;2023-12-29T12:53:10;1.53;;;0.90;;
9080;SDS011;13509;50.760;6.080;2023-12-29T12:55:41;2.67;;;1.03;;
9080;SDS011;13509;50.760;6.080;2023-12-29T12:58:10;4.53;;;1.07;;
9080;SDS011;13509;50.760;6.080;2023-12-29T13:00:40;5.27;;;0.90;;
9080;SDS011;13509;50.760;6.080;2023-12-29T13:03:09;2.20;;;1.27;;
9080;SDS011;13509;50.760;6.080;2023-12-29T13:05:37;1.80;;;0.90;;
9080;SDS011;13509;50.760;6.080;2023-12-29T13:08:06;2.63;;;1.00;;
9080;SDS011;13509;50.760;6.080;2023-12-29T13:10:39;1.00;;;0.90;;
9080;SDS011;13509;50.760;6.080;2023-12-29T13:13:08;5.17;;;0.93;;
9080;SDS011;13509;50.760;6.080;2023-12-29T13:15:45;3.83;;;1.10;;
9080;SDS011;13509;50.760;6.080;2023-12-29T13:18:14;1.93;;;1.23;;
9080;SDS011;13509;50.760;6.080;2023-12-29T13:20:43;1.37;;;0.83;;
9080;SDS011;13509;50.760;6.080;2023-12-29T13:23:12;1.47;;;1.10;;
9080;SDS011;13509;50.760;6.080;2023-12-29T13:25:40;2.80;;;1.03;;
9080;SDS011;13509;50.760;6.080;2023-12-29T13:28:11;2.17;;;1.10;;
9080;SDS011;13509;50.760;6.080;2023-12-29T13:30:40;3.97;;;1.10;;
9080;SDS011;13509;50.760;6.080;2023-12-29T13:33:11;2.23;;;1.10;;
9080;SDS011;13509;50.760;6.080;2023-12-29T13:35:40;3.40;;;1.27;;
9080;SDS011;13509;50.760;6.080;2023-12-29T13:38:25;2.83;;;1.10;;
9080;SDS011;13509;50.760;6.080;2023-12-29T13:40:55;1.23;;;0.90;;
9080;SDS011;13509;50.760;6.080;2023-12-29T13:43:24;2.97;;;1.27;;
9080;SDS011;13509;50.760;6.080;2023-12-29T13:45:52;1.97;;;1.00;;
9080;SDS011;13509;50.760;6.080;2023-12-29T13:48:22;2.40;;;1.10;;
9080;SDS011;13509;50.760;6.080;2023-12-29T13:50:51;2.20;;;1.17;;
9080;SDS011;13509;50.760;6.080;2023-12-29T13:53:19;1.80;;;1.23;;
9080;SDS011;13509;50.760;6.080;2023-12-29T13:55:48;1.93;;;1.30;;
9080;SDS011;13509;50.760;6.080;2023-12-29T13:58:17;3.50;;;1.37;;
9080;SDS011;13509;50.760;6.080;2023-12-29T14:00:45;1.03;;;0.97;;
9080;SDS011;13509;50.760;6.080;2023-12-29T14:03:22;3.70;;;1.13;;
9080;SDS011;13509;50.760;6.080;2023-12-29T14:05:56;1.63;;;0.93;;
9080;SDS011;13509;50.760;6.080;2023-12-29T14:08:32;3.53;;;1.00;;
9080;SDS011;13509;50.760;6.080;2023-12-29T14:11:06;1.63;;;1.03;;
9080;SDS011;13509;50.760;6.080;2023-12-29T14:13:35;4.87;;;1.03;;
9080;SDS011;13509;50.760;6.080;2023-12-29T14:16:03;1.27;;;0.87;;
9080;SDS011;13509;50.760;6.080;2023-12-29T14:18:47;2.83;;;1.20;;
9080;SDS011;13509;50.760;6.080;2023-12-29T14:21:22;2.57;;;0.90;;
9080;SDS011;13509;50.760;6.080;2023-12-29T14:24:06;2.03;;;0.87;;
9080;SDS011;13509;50.760;6.080;2023-12-29T14:26:35;1.77;;;1.00;;
9080;SDS011;13509;50.760;6.080;2023-12-29T14:29:04;3.07;;;1.23;;
9080;SDS011;13509;50.760;6.080;2023-12-29T14:31:34;2.30;;;1.23;;
9080;SDS011;13509;50.760;6.080;2023-12-29T14:34:03;2.07;;;1.30;;
9080;SDS011;13509;50.760;6.080;2023-12-29T14:36:33;1.73;;;1.20;;
9080;SDS011;13509;50.760;6.080;2023-12-29T14:39:02;1.67;;;1.13;;
9080;SDS011;13509;50.760;6.080;2023-12-29T14:41:30;2.33;;;1.30;;
9080;SDS011;13509;50.760;6.080;2023-12-29T14:43:59;3.37;;;1.57;;
9080;SDS011;13509;50.760;6.080;2023-12-29T14:46:27;2.30;;;1.30;;
9080;SDS011;13509;50.760;6.080;2023-12-29T14:48:56;1.90;;;1.10;;
9080;SDS011;13509;50.760;6.080;2023-12-29T14:51:25;1.83;;;1.20;;
9080;SDS011;13509;50.760;6.080;2023-12-29T14:53:55;2.27;;;1.47;;
9080;SDS011;13509;50.760;6.080;2023-12-29T14:56:23;2.40;;;1.47;;
9080;SDS011;13509;50.760;6.080;2023-12-29T14:58:52;1.77;;;1.23;;
9080;SDS011;13509;50.760;6.080;2023-12-29T15:01:20;1.97;;;1.10;;
9080;SDS011;13509;50.760;6.080;2023-12-29T15:03:49;3.03;;;1.00;;
9080;SDS011;13509;50.760;6.080;2023-12-29T15:06:18;1.43;;;1.13;;
9080;SDS011;13509;50.760;6.080;2023-12-29T15:08:46;3.53;;;1.40;;
9080;SDS011;13509;50.760;6.080;2023-12-29T15:11:16;2.03;;;1.20;;
9080;SDS011;13509;50.760;6.080;2023-12-29T15:13:48;2.50;;;1.90;;
9080;SDS011;13509;50.760;6.080;2023-12-29T15:16:17;3.77;;;1.60;;
9080;SDS011;13509;50.760;6.080;2023-12-29T15:18:45;1.67;;;1.30;;